Aérodrome :
LOGIN :

S'inscrire | Disclaimer

   EN    FR    IT 

 










Légende :    VFR   VFR Marginal   IFR   IFR Intensif   IFR Très Intensif
Visi : 
Plafond : 
>= 8 km
>= 3000ft
5 à 8 km
1000 à 3000 ft
1500m à 5 km
500 à 1000 ft
800 à 1500m
200 à 500 ft
< 800m
< 200 ft
Symboles :   Orages  Brouillard  Fortes neiges  Fortes précipitations  Vent > 20 kt
SIGMETs :   Divers  Orages  Givrage  Turbulence  Onde Orograph.  Cendres Volcan.






- Altitude de l'aérodrome : 659 ft
- Code IATA : LYN


LFLY - Lyon Bron

DERNIER METAR :
  • 071630Z AUTO 16005KT CAVOK 21/14 Q1021 NOSIG

METARs EXPIRÉS :
  • 071600Z AUTO 18006KT 150V210 CAVOK 22/14 Q1021 NOSIG
  • 071530Z AUTO 19011KT CAVOK 22/13 Q1021 NOSIG
  • 071500Z AUTO 18007KT CAVOK 23/14 Q1021 NOSIG
  • 071430Z AUTO 19008KT CAVOK 22/14 Q1021 NOSIG
  • 071400Z AUTO 18008KT 130V220 CAVOK 23/14 Q1021 NOSIG

TAF TAF LFLY
Valide du 07 à 12h jusqu'au 08 à 12h UTC


071100Z 0712/0812 17005KT CAVOK
TEMPO 0801/0810 -SHRA BKN050
BECMG 0806/0808 35010KT
PROB40
TEMPO 0806/0810 4000 SHRA BKN010 SCT050TCU OVC080
ATIS : +33 4 72 15 87 96



MET'MAP, la Météo Aéronautique d'un coup d'oeil ! - Copyright ORBIFLY Décembre 2007 - Disclaimer

ORBIFLY MET'MAP TEAM :

Programmation & Développement : Alexandra Zaïnal
Sur une idée originale de : Baudouin d'Aumeries
Soutien technique & logistique : Manuel Goepfert
Assistance : Marc-Olivier Méhu




SOURCES & CREDITS :

   NOAA